Terminal Aerodrome Forecast
Issued by NWS Grand Forks, ND

Home | Current Version | Previous Version | Text Only | Print | Product List | Glossary Off
Versions: 1 2 3 4 5 6 7 8 9 10 11 12 13 14 15 16 17 18

680
FTUS43 KFGF 231812 AAA
TAFGFK
TAF AMD
KGFK 231812Z 2318/2418 20013G22KT P6SM BKN120
     FM232300 26013KT P6SM VCTS BKN035CB
     FM240100 29011KT P6SM SCT100
     FM241600 27013G18KT P6SM SCT200=

USA.gov is the U.S. government's official web portal to all federal, state and local government web resources and services.